NKS450 KASE-KLAS
Flight info
| Callsign | NKS450 |
|---|---|
| Flight time | 1h 17m |
| Altitude | 32000 |
| Route | LINDZ1 LINDZ JNC GGAPP CHOWW4 |
| Aircraft | A320/M-SDE3FGHIRWY/LB1 |
Departure
| Time | 2026-04-11 05:01 |
|---|---|
| Airport | Aspen-Pitkin County Airport (Sardy Field) (KASE) |
Arrival
| Time | 2026-04-11 06:19 |
|---|---|
| Airport | Harry Reid International Airport (KLAS) |
| Time | Latitude | Longitude | Altitude | Speed | Heading |
|---|---|---|---|---|---|
| 2026-04-11 04:36 | 39.21948 | -106.86509 | 7792 ft | 0 kts | 79° |
| 2026-04-11 04:53 | 39.21947 | -106.86515 | 7787 ft | 2 kts | 79° |
| 2026-04-11 04:53 | 39.21944 | -106.86535 | 7791 ft | 2 kts | 80° |
| 2026-04-11 04:53 | 39.21941 | -106.86554 | 7791 ft | 2 kts | 80° |
| 2026-04-11 04:53 | 39.21940 | -106.86574 | 7779 ft | 2 kts | 123° |
| 2026-04-11 04:54 | 39.21951 | -106.86587 | 7781 ft | 0 kts | 163° |
| 2026-04-11 04:56 | 39.21935 | -106.86581 | 7779 ft | 5 kts | 163° |
| 2026-04-11 04:57 | 39.21876 | -106.86555 | 7791 ft | 13 kts | 161° |
| 2026-04-11 04:57 | 39.21772 | -106.86504 | 7804 ft | 19 kts | 160° |
| 2026-04-11 04:57 | 39.21628 | -106.86437 | 7815 ft | 23 kts | 159° |
| 2026-04-11 04:57 | 39.21498 | -106.86377 | 7825 ft | 17 kts | 162° |
| 2026-04-11 04:58 | 39.21398 | -106.86327 | 7827 ft | 15 kts | 156° |
| 2026-04-11 04:58 | 39.21305 | -106.86280 | 7836 ft | 14 kts | 159° |
| 2026-04-11 04:58 | 39.21227 | -106.86251 | 7841 ft | 9 kts | 181° |
| 2026-04-11 04:58 | 39.21222 | -106.86251 | 7841 ft | 0 kts | 185° |
| 2026-04-11 04:59 | 39.21218 | -106.86252 | 7841 ft | 4 kts | 185° |
| 2026-04-11 04:59 | 39.21182 | -106.86327 | 7846 ft | 15 kts | 291° |
| 2026-04-11 04:59 | 39.21258 | -106.86381 | 7840 ft | 0 kts | 340° |
| 2026-04-11 05:00 | 39.21262 | -106.86383 | 7832 ft | 0 kts | 340° |
| 2026-04-11 05:00 | 39.21268 | -106.86386 | 7838 ft | 4 kts | 340° |
| 2026-04-11 05:00 | 39.21411 | -106.86453 | 7827 ft | 54 kts | 340° |
| 2026-04-11 05:01 | 39.21998 | -106.86733 | 7780 ft | 122 kts | 340° |
| 2026-04-11 05:01 | 39.22968 | -106.87207 | 7714 ft | 174 kts | 338° |
| 2026-04-11 05:01 | 39.24178 | -106.87788 | 8062 ft | 191 kts | 342° |
| 2026-04-11 05:01 | 39.25480 | -106.88181 | 8868 ft | 192 kts | 348° |
| 2026-04-11 05:02 | 39.26736 | -106.88738 | 9699 ft | 191 kts | 327° |
| 2026-04-11 05:02 | 39.27706 | -106.89924 | 9971 ft | 200 kts | 297° |
| 2026-04-11 05:02 | 39.28157 | -106.91661 | 10135 ft | 212 kts | 280° |
| 2026-04-11 05:02 | 39.28388 | -106.93627 | 10232 ft | 231 kts | 275° |
| 2026-04-11 05:03 | 39.28555 | -106.95802 | 10321 ft | 255 kts | 275° |
| 2026-04-11 05:03 | 39.28755 | -106.98190 | 10507 ft | 279 kts | 276° |
| 2026-04-11 05:03 | 39.29082 | -107.00765 | 10686 ft | 303 kts | 287° |
| 2026-04-11 05:03 | 39.30123 | -107.03245 | 10833 ft | 327 kts | 304° |
| 2026-04-11 05:04 | 39.31564 | -107.05611 | 11211 ft | 340 kts | 310° |
| 2026-04-11 05:04 | 39.33140 | -107.07863 | 11826 ft | 344 kts | 312° |
| 2026-04-11 05:04 | 39.34810 | -107.10141 | 12495 ft | 346 kts | 312° |
| 2026-04-11 05:04 | 39.36449 | -107.12379 | 13150 ft | 348 kts | 311° |
| 2026-04-11 05:05 | 39.38784 | -107.17715 | 14341 ft | 348 kts | 274° |
| 2026-04-11 05:05 | 39.38670 | -107.20829 | 14916 ft | 348 kts | 258° |
| 2026-04-11 05:05 | 39.38066 | -107.23854 | 15507 ft | 348 kts | 251° |
| 2026-04-11 05:06 | 39.37265 | -107.26812 | 16105 ft | 349 kts | 249° |
| 2026-04-11 05:06 | 39.36438 | -107.29772 | 16696 ft | 351 kts | 250° |
| 2026-04-11 05:06 | 39.35665 | -107.32772 | 17289 ft | 353 kts | 252° |
| 2026-04-11 05:06 | 39.34962 | -107.35824 | 17911 ft | 355 kts | 253° |
| 2026-04-11 05:07 | 39.34315 | -107.38910 | 18473 ft | 357 kts | 254° |
| 2026-04-11 05:07 | 39.33704 | -107.42033 | 19008 ft | 360 kts | 255° |
| 2026-04-11 05:07 | 39.33105 | -107.45182 | 19535 ft | 362 kts | 255° |
| 2026-04-11 05:07 | 39.32503 | -107.48357 | 20060 ft | 365 kts | 255° |
| 2026-04-11 05:08 | 39.31891 | -107.51550 | 20578 ft | 368 kts | 255° |
| 2026-04-11 05:08 | 39.31268 | -107.54769 | 21073 ft | 371 kts | 255° |
| 2026-04-11 05:08 | 39.30633 | -107.58007 | 21554 ft | 374 kts | 254° |
| 2026-04-11 05:08 | 39.29989 | -107.61269 | 22018 ft | 376 kts | 254° |
| 2026-04-11 05:09 | 39.29340 | -107.64553 | 22485 ft | 379 kts | 254° |
| 2026-04-11 05:09 | 39.28682 | -107.67860 | 22944 ft | 382 kts | 254° |
| 2026-04-11 05:09 | 39.28014 | -107.71188 | 23393 ft | 385 kts | 254° |
| 2026-04-11 05:09 | 39.27341 | -107.74541 | 23785 ft | 387 kts | 254° |
| 2026-04-11 05:10 | 39.26665 | -107.77917 | 24162 ft | 390 kts | 254° |
| 2026-04-11 05:10 | 39.25985 | -107.81310 | 24539 ft | 392 kts | 254° |
| 2026-04-11 05:10 | 39.25303 | -107.84718 | 24914 ft | 394 kts | 254° |
| 2026-04-11 05:10 | 39.24620 | -107.88146 | 25287 ft | 395 kts | 254° |
| 2026-04-11 05:11 | 39.23933 | -107.91591 | 25663 ft | 397 kts | 254° |
| 2026-04-11 05:11 | 39.23241 | -107.95048 | 26042 ft | 399 kts | 254° |
| 2026-04-11 05:11 | 39.22542 | -107.98522 | 26403 ft | 401 kts | 254° |
| 2026-04-11 05:11 | 39.21838 | -108.02008 | 26773 ft | 403 kts | 254° |
| 2026-04-11 05:12 | 39.21131 | -108.05510 | 27133 ft | 405 kts | 254° |
| 2026-04-11 05:12 | 39.20420 | -108.09028 | 27499 ft | 407 kts | 254° |
| 2026-04-11 05:12 | 39.19703 | -108.12568 | 27876 ft | 409 kts | 254° |
| 2026-04-11 05:12 | 39.18982 | -108.16116 | 28255 ft | 411 kts | 254° |
| 2026-04-11 05:13 | 39.18254 | -108.19686 | 28637 ft | 412 kts | 254° |
| 2026-04-11 05:13 | 39.17523 | -108.23267 | 29021 ft | 414 kts | 254° |
| 2026-04-11 05:13 | 39.16787 | -108.26868 | 29399 ft | 416 kts | 254° |
| 2026-04-11 05:13 | 39.16049 | -108.30487 | 29778 ft | 418 kts | 254° |
| 2026-04-11 05:14 | 39.15319 | -108.34065 | 30157 ft | 419 kts | 254° |
| 2026-04-11 05:14 | 39.14577 | -108.37695 | 30632 ft | 417 kts | 254° |
| 2026-04-11 05:14 | 39.13839 | -108.41295 | 31126 ft | 414 kts | 254° |
| 2026-04-11 05:14 | 39.13104 | -108.44877 | 31625 ft | 411 kts | 254° |
| 2026-04-11 05:15 | 39.12372 | -108.48432 | 31946 ft | 410 kts | 253° |
| 2026-04-11 05:15 | 39.11641 | -108.51963 | 32013 ft | 404 kts | 253° |
| 2026-04-11 05:15 | 39.10201 | -108.58890 | 32020 ft | 398 kts | 253° |
| 2026-04-11 05:16 | 39.08773 | -108.65772 | 32010 ft | 398 kts | 253° |
| 2026-04-11 05:16 | 39.07338 | -108.72649 | 31976 ft | 398 kts | 253° |
| 2026-04-11 05:17 | 39.05762 | -108.79461 | 31945 ft | 396 kts | 245° |
| 2026-04-11 05:17 | 39.03171 | -108.85688 | 31918 ft | 395 kts | 240° |
| 2026-04-11 05:18 | 39.00492 | -108.91863 | 31895 ft | 395 kts | 240° |
| 2026-04-11 05:18 | 38.97808 | -108.98023 | 31880 ft | 395 kts | 240° |
| 2026-04-11 05:19 | 38.95119 | -109.04179 | 31866 ft | 395 kts | 240° |
| 2026-04-11 05:19 | 38.92446 | -109.10290 | 31875 ft | 395 kts | 240° |
| 2026-04-11 05:20 | 38.89757 | -109.16430 | 31878 ft | 395 kts | 240° |
| 2026-04-11 05:20 | 38.87062 | -109.22578 | 31875 ft | 394 kts | 240° |
| 2026-04-11 05:21 | 38.84368 | -109.28706 | 31866 ft | 394 kts | 240° |
| 2026-04-11 05:21 | 38.81679 | -109.34820 | 31890 ft | 394 kts | 240° |
| 2026-04-11 05:22 | 38.78988 | -109.40924 | 31915 ft | 393 kts | 239° |
| 2026-04-11 05:22 | 38.76292 | -109.47018 | 31936 ft | 393 kts | 239° |
| 2026-04-11 05:23 | 38.73596 | -109.53098 | 31950 ft | 392 kts | 239° |
| 2026-04-11 05:23 | 38.70900 | -109.59165 | 31969 ft | 392 kts | 239° |
| 2026-04-11 05:24 | 38.68204 | -109.65224 | 31982 ft | 391 kts | 239° |
| 2026-04-11 05:24 | 38.65526 | -109.71236 | 31986 ft | 391 kts | 239° |
| 2026-04-11 05:25 | 38.62831 | -109.77275 | 31964 ft | 391 kts | 239° |
| 2026-04-11 05:25 | 38.60128 | -109.83309 | 31943 ft | 390 kts | 239° |
| 2026-04-11 05:26 | 38.57888 | -109.88316 | 31925 ft | 390 kts | 239° |
| 2026-04-11 05:26 | 38.55190 | -109.94339 | 31903 ft | 390 kts | 239° |
| 2026-04-11 05:27 | 38.52487 | -110.00359 | 31871 ft | 390 kts | 239° |
| 2026-04-11 05:27 | 38.49781 | -110.06359 | 31845 ft | 390 kts | 239° |
| 2026-04-11 05:28 | 38.47071 | -110.12358 | 31846 ft | 390 kts | 239° |
| 2026-04-11 05:28 | 38.44382 | -110.18311 | 31843 ft | 390 kts | 239° |
| 2026-04-11 05:29 | 38.41671 | -110.24293 | 31843 ft | 389 kts | 239° |
| 2026-04-11 05:29 | 38.38958 | -110.30266 | 31868 ft | 389 kts | 239° |
| 2026-04-11 05:30 | 38.36242 | -110.36250 | 31898 ft | 389 kts | 239° |
| 2026-04-11 05:30 | 38.33520 | -110.42221 | 31918 ft | 389 kts | 239° |
| 2026-04-11 05:31 | 38.30798 | -110.48176 | 31937 ft | 389 kts | 238° |
| 2026-04-11 05:31 | 38.28069 | -110.54131 | 31944 ft | 389 kts | 238° |
| 2026-04-11 05:32 | 38.25361 | -110.60043 | 31948 ft | 389 kts | 238° |
| 2026-04-11 05:32 | 38.22637 | -110.65985 | 31941 ft | 389 kts | 238° |
| 2026-04-11 05:33 | 38.19907 | -110.71922 | 31929 ft | 389 kts | 238° |
| 2026-04-11 05:33 | 38.17175 | -110.77858 | 31907 ft | 389 kts | 238° |
| 2026-04-11 05:34 | 38.14442 | -110.83785 | 31886 ft | 388 kts | 238° |
| 2026-04-11 05:34 | 38.11701 | -110.89705 | 31864 ft | 389 kts | 238° |
| 2026-04-11 05:35 | 38.08957 | -110.95622 | 31856 ft | 389 kts | 238° |
| 2026-04-11 05:35 | 38.06216 | -111.01532 | 31856 ft | 389 kts | 238° |
| 2026-04-11 05:36 | 38.03466 | -111.07440 | 31858 ft | 389 kts | 238° |
| 2026-04-11 05:36 | 38.00717 | -111.13342 | 31865 ft | 389 kts | 238° |
| 2026-04-11 05:37 | 37.97969 | -111.19241 | 31873 ft | 389 kts | 238° |
| 2026-04-11 05:37 | 37.95211 | -111.25141 | 31880 ft | 389 kts | 238° |
| 2026-04-11 05:38 | 37.92450 | -111.31037 | 31884 ft | 389 kts | 237° |
| 2026-04-11 05:38 | 37.89689 | -111.36927 | 31891 ft | 389 kts | 237° |
| 2026-04-11 05:39 | 37.86921 | -111.42810 | 31897 ft | 389 kts | 237° |
| 2026-04-11 05:39 | 37.84154 | -111.48692 | 31900 ft | 389 kts | 237° |
| 2026-04-11 05:40 | 37.81404 | -111.54530 | 31904 ft | 389 kts | 237° |
| 2026-04-11 05:40 | 37.78629 | -111.60401 | 31909 ft | 389 kts | 237° |
| 2026-04-11 05:41 | 37.75838 | -111.66285 | 31910 ft | 388 kts | 237° |
| 2026-04-11 05:41 | 37.73075 | -111.72117 | 31931 ft | 388 kts | 237° |
| 2026-04-11 05:42 | 37.70292 | -111.77977 | 31981 ft | 388 kts | 237° |
| 2026-04-11 05:42 | 37.67525 | -111.83786 | 32011 ft | 386 kts | 236° |
| 2026-04-11 05:43 | 37.64748 | -111.89597 | 32040 ft | 386 kts | 236° |
| 2026-04-11 05:43 | 37.61968 | -111.95410 | 32067 ft | 386 kts | 236° |
| 2026-04-11 05:44 | 37.59204 | -112.01192 | 32087 ft | 387 kts | 235° |
| 2026-04-11 05:44 | 37.56415 | -112.07010 | 32091 ft | 387 kts | 235° |
| 2026-04-11 05:45 | 37.53637 | -112.12792 | 32079 ft | 387 kts | 235° |
| 2026-04-11 05:45 | 37.50768 | -112.18541 | 32058 ft | 386 kts | 233° |
| 2026-04-11 05:46 | 37.47831 | -112.24159 | 32026 ft | 386 kts | 233° |
| 2026-04-11 05:46 | 37.44863 | -112.29812 | 31984 ft | 386 kts | 233° |
| 2026-04-11 05:47 | 37.41929 | -112.35445 | 31944 ft | 385 kts | 233° |
| 2026-04-11 05:47 | 37.38995 | -112.41106 | 31920 ft | 386 kts | 233° |
| 2026-04-11 05:48 | 37.36075 | -112.46729 | 31925 ft | 385 kts | 233° |
| 2026-04-11 05:48 | 37.33134 | -112.52382 | 31927 ft | 385 kts | 233° |
| 2026-04-11 05:49 | 37.30204 | -112.57985 | 31923 ft | 385 kts | 233° |
| 2026-04-11 05:49 | 37.27254 | -112.63605 | 31926 ft | 385 kts | 233° |
| 2026-04-11 05:50 | 37.24303 | -112.69223 | 31926 ft | 385 kts | 233° |
| 2026-04-11 05:50 | 37.21372 | -112.74804 | 31939 ft | 384 kts | 233° |
| 2026-04-11 05:51 | 37.18426 | -112.80403 | 31965 ft | 384 kts | 233° |
| 2026-04-11 05:51 | 37.15480 | -112.86000 | 32002 ft | 383 kts | 233° |
| 2026-04-11 05:52 | 37.12539 | -112.91580 | 32026 ft | 383 kts | 232° |
| 2026-04-11 05:52 | 37.09612 | -112.97116 | 32062 ft | 383 kts | 232° |
| 2026-04-11 05:53 | 37.06666 | -113.02678 | 32081 ft | 382 kts | 232° |
| 2026-04-11 05:53 | 37.03718 | -113.08235 | 32100 ft | 383 kts | 232° |
| 2026-04-11 05:54 | 37.00776 | -113.13776 | 32081 ft | 382 kts | 232° |
| 2026-04-11 05:54 | 36.97851 | -113.19278 | 32059 ft | 381 kts | 232° |
| 2026-04-11 05:55 | 36.94904 | -113.24805 | 32029 ft | 381 kts | 232° |
| 2026-04-11 05:55 | 36.91968 | -113.30301 | 31919 ft | 380 kts | 232° |
| 2026-04-11 05:56 | 36.89025 | -113.35798 | 31920 ft | 380 kts | 232° |
| 2026-04-11 05:56 | 36.86045 | -113.41346 | 31884 ft | 391 kts | 232° |
| 2026-04-11 05:57 | 36.84541 | -113.44147 | 31449 ft | 387 kts | 232° |
| 2026-04-11 05:57 | 36.83057 | -113.46918 | 30692 ft | 381 kts | 232° |
| 2026-04-11 05:57 | 36.81585 | -113.49664 | 29782 ft | 378 kts | 232° |
| 2026-04-11 05:57 | 36.80153 | -113.52342 | 29334 ft | 362 kts | 232° |
| 2026-04-11 05:58 | 36.78784 | -113.54914 | 28932 ft | 348 kts | 232° |
| 2026-04-11 05:58 | 36.77470 | -113.57381 | 28543 ft | 335 kts | 232° |
| 2026-04-11 05:58 | 36.76203 | -113.59752 | 28177 ft | 322 kts | 232° |
| 2026-04-11 05:58 | 36.74976 | -113.62039 | 27799 ft | 315 kts | 232° |
| 2026-04-11 05:59 | 36.73757 | -113.64296 | 27460 ft | 316 kts | 232° |
| 2026-04-11 05:59 | 36.72530 | -113.66565 | 27103 ft | 315 kts | 232° |
| 2026-04-11 05:59 | 36.71306 | -113.68830 | 26739 ft | 314 kts | 232° |
| 2026-04-11 05:59 | 36.70083 | -113.71089 | 26374 ft | 313 kts | 232° |
| 2026-04-11 06:00 | 36.68867 | -113.73336 | 26015 ft | 311 kts | 232° |
| 2026-04-11 06:00 | 36.67661 | -113.75570 | 25657 ft | 310 kts | 232° |
| 2026-04-11 06:00 | 36.66463 | -113.77796 | 25280 ft | 309 kts | 232° |
| 2026-04-11 06:00 | 36.65267 | -113.80019 | 24910 ft | 308 kts | 232° |
| 2026-04-11 06:01 | 36.64074 | -113.82236 | 24528 ft | 308 kts | 232° |
| 2026-04-11 06:01 | 36.62895 | -113.84415 | 24147 ft | 307 kts | 232° |
| 2026-04-11 06:01 | 36.61696 | -113.86626 | 23759 ft | 307 kts | 232° |
| 2026-04-11 06:01 | 36.60498 | -113.88834 | 23365 ft | 308 kts | 232° |
| 2026-04-11 06:02 | 36.59298 | -113.91045 | 22929 ft | 307 kts | 232° |
| 2026-04-11 06:02 | 36.58082 | -113.93218 | 22516 ft | 306 kts | 230° |
| 2026-04-11 06:02 | 36.56779 | -113.95374 | 22086 ft | 315 kts | 229° |
| 2026-04-11 06:02 | 36.55429 | -113.97530 | 21644 ft | 315 kts | 229° |
| 2026-04-11 06:03 | 36.54073 | -113.99672 | 21204 ft | 314 kts | 229° |
| 2026-04-11 06:03 | 36.52740 | -114.01779 | 20780 ft | 313 kts | 229° |
| 2026-04-11 06:03 | 36.51397 | -114.03912 | 20346 ft | 312 kts | 229° |
| 2026-04-11 06:03 | 36.50066 | -114.06038 | 19906 ft | 310 kts | 229° |
| 2026-04-11 06:04 | 36.48746 | -114.08159 | 19475 ft | 310 kts | 229° |
| 2026-04-11 06:04 | 36.47432 | -114.10275 | 19051 ft | 309 kts | 230° |
| 2026-04-11 06:04 | 36.46119 | -114.12392 | 18629 ft | 309 kts | 230° |
| 2026-04-11 06:04 | 36.44807 | -114.14500 | 18204 ft | 308 kts | 229° |
| 2026-04-11 06:05 | 36.43508 | -114.16584 | 17741 ft | 308 kts | 229° |
| 2026-04-11 06:05 | 36.42196 | -114.18687 | 17361 ft | 304 kts | 229° |
| 2026-04-11 06:05 | 36.40917 | -114.20741 | 17124 ft | 298 kts | 229° |
| 2026-04-11 06:05 | 36.39644 | -114.22782 | 16647 ft | 298 kts | 229° |
| 2026-04-11 06:06 | 36.37103 | -114.26804 | 15865 ft | 295 kts | 228° |
| 2026-04-11 06:06 | 36.35837 | -114.28785 | 15489 ft | 294 kts | 228° |
| 2026-04-11 06:06 | 36.34568 | -114.30766 | 15167 ft | 291 kts | 227° |
| 2026-04-11 06:07 | 36.33306 | -114.32737 | 14784 ft | 291 kts | 227° |
| 2026-04-11 06:07 | 36.32045 | -114.34708 | 14412 ft | 290 kts | 227° |
| 2026-04-11 06:07 | 36.30792 | -114.36669 | 14064 ft | 289 kts | 227° |
| 2026-04-11 06:07 | 36.29556 | -114.38602 | 13726 ft | 289 kts | 227° |
| 2026-04-11 06:08 | 36.28308 | -114.40554 | 13372 ft | 288 kts | 227° |
| 2026-04-11 06:08 | 36.27060 | -114.42506 | 13034 ft | 287 kts | 227° |
| 2026-04-11 06:08 | 36.25833 | -114.44427 | 12541 ft | 282 kts | 227° |
| 2026-04-11 06:08 | 36.24625 | -114.46311 | 11905 ft | 281 kts | 227° |
| 2026-04-11 06:09 | 36.23404 | -114.48190 | 11374 ft | 275 kts | 226° |
| 2026-04-11 06:09 | 36.22219 | -114.50004 | 10990 ft | 272 kts | 226° |
| 2026-04-11 06:09 | 36.21028 | -114.51823 | 10624 ft | 271 kts | 226° |
| 2026-04-11 06:09 | 36.19843 | -114.53631 | 10250 ft | 271 kts | 226° |
| 2026-04-11 06:10 | 36.18648 | -114.55448 | 9934 ft | 270 kts | 227° |
| 2026-04-11 06:10 | 36.17472 | -114.57245 | 9886 ft | 268 kts | 227° |
| 2026-04-11 06:10 | 36.16298 | -114.59043 | 9895 ft | 269 kts | 226° |
| 2026-04-11 06:10 | 36.15520 | -114.60234 | 9745 ft | 268 kts | 227° |
| 2026-04-11 06:11 | 36.14343 | -114.62034 | 9009 ft | 269 kts | 227° |
| 2026-04-11 06:11 | 36.12788 | -114.64412 | 8479 ft | 265 kts | 227° |
| 2026-04-11 06:11 | 36.11642 | -114.66159 | 8346 ft | 258 kts | 227° |
| 2026-04-11 06:11 | 36.10537 | -114.67846 | 8254 ft | 248 kts | 227° |
| 2026-04-11 06:12 | 36.09811 | -114.68954 | 8193 ft | 242 kts | 227° |
| 2026-04-11 06:12 | 36.08783 | -114.70526 | 8091 ft | 234 kts | 227° |
| 2026-04-11 06:12 | 36.07839 | -114.72119 | 7993 ft | 227 kts | 238° |
| 2026-04-11 06:12 | 36.07356 | -114.73972 | 7817 ft | 231 kts | 258° |
| 2026-04-11 06:13 | 36.07301 | -114.75860 | 7628 ft | 231 kts | 264° |
| 2026-04-11 06:13 | 36.07322 | -114.77835 | 7370 ft | 230 kts | 265° |
| 2026-04-11 06:13 | 36.07334 | -114.79812 | 7086 ft | 230 kts | 264° |
| 2026-04-11 06:13 | 36.07339 | -114.81797 | 6797 ft | 231 kts | 265° |
| 2026-04-11 06:14 | 36.07343 | -114.83790 | 6511 ft | 232 kts | 265° |
| 2026-04-11 06:14 | 36.07346 | -114.85793 | 6213 ft | 233 kts | 265° |
| 2026-04-11 06:14 | 36.07350 | -114.87789 | 5894 ft | 232 kts | 265° |
| 2026-04-11 06:14 | 36.07354 | -114.89760 | 5595 ft | 225 kts | 266° |
| 2026-04-11 06:15 | 36.07358 | -114.91653 | 5310 ft | 215 kts | 266° |
| 2026-04-11 06:15 | 36.07360 | -114.93469 | 5037 ft | 207 kts | 266° |
| 2026-04-11 06:15 | 36.07361 | -114.95187 | 4792 ft | 198 kts | 267° |
| 2026-04-11 06:15 | 36.07363 | -114.96830 | 4555 ft | 184 kts | 266° |
| 2026-04-11 06:16 | 36.07365 | -114.98362 | 4325 ft | 169 kts | 266° |
| 2026-04-11 06:16 | 36.07367 | -114.99736 | 4125 ft | 151 kts | 265° |
| 2026-04-11 06:16 | 36.07367 | -115.01003 | 3919 ft | 145 kts | 265° |
| 2026-04-11 06:16 | 36.07366 | -115.02221 | 3739 ft | 142 kts | 266° |
| 2026-04-11 06:17 | 36.07366 | -115.03442 | 3557 ft | 141 kts | 268° |
| 2026-04-11 06:17 | 36.07366 | -115.04657 | 3376 ft | 141 kts | 266° |
| 2026-04-11 06:17 | 36.07366 | -115.05865 | 3203 ft | 141 kts | 267° |
| 2026-04-11 06:17 | 36.07366 | -115.07093 | 2997 ft | 140 kts | 268° |
| 2026-04-11 06:18 | 36.07362 | -115.08310 | 2807 ft | 142 kts | 267° |
| 2026-04-11 06:18 | 36.07358 | -115.09532 | 2599 ft | 142 kts | 268° |
| 2026-04-11 06:18 | 36.07371 | -115.10756 | 2390 ft | 144 kts | 265° |
| 2026-04-11 06:18 | 36.07370 | -115.11990 | 2214 ft | 144 kts | 266° |
| 2026-04-11 06:19 | 36.07370 | -115.13232 | 2085 ft | 143 kts | 266° |
| 2026-04-11 06:19 | 36.07354 | -115.14317 | 2111 ft | 103 kts | 272° |
| 2026-04-11 06:19 | 36.07377 | -115.14896 | 2123 ft | 26 kts | 294° |
| 2026-04-11 06:19 | 36.07449 | -115.15002 | 2124 ft | 14 kts | 291° |
| 2026-04-11 06:20 | 36.07507 | -115.15112 | 2122 ft | 15 kts | 323° |
| 2026-04-11 06:20 | 36.07535 | -115.15135 | 2122 ft | 0 kts | 330° |
| 2026-04-11 06:20 | 36.07536 | -115.15136 | 2122 ft | 2 kts | 329° |
| 2026-04-11 06:21 | 36.07591 | -115.15170 | 2123 ft | 17 kts | 337° |
| 2026-04-11 06:21 | 36.07722 | -115.15244 | 2127 ft | 22 kts | 336° |
| 2026-04-11 06:21 | 36.07855 | -115.15325 | 2126 ft | 23 kts | 332° |
| 2026-04-11 06:21 | 36.08005 | -115.15403 | 2124 ft | 25 kts | 335° |
| 2026-04-11 06:22 | 36.08180 | -115.15515 | 2113 ft | 30 kts | 335° |
| 2026-04-11 06:22 | 36.08371 | -115.15619 | 2114 ft | 30 kts | 333° |
| 2026-04-11 06:22 | 36.08486 | -115.15662 | 2113 ft | 16 kts | 24° |
| 2026-04-11 06:22 | 36.08580 | -115.15591 | 2106 ft | 18 kts | 24° |